createdAt,value
2018-08-16T00:00:34.214Z,61.83
2018-08-16T00:01:34.100Z,61.83
2018-08-16T00:02:34.035Z,61.76
2018-08-16T00:03:34.008Z,61.73
2018-08-16T00:04:34.118Z,61.9
2018-08-16T00:05:33.945Z,61.76
2018-08-16T00:06:34.042Z,61.81
2018-08-16T00:07:33.992Z,61.84
2018-08-16T00:08:34.440Z,61.97
2018-08-16T00:09:34.153Z,61.76
2018-08-16T00:10:33.986Z,61.7
2018-08-16T00:11:34.021Z,61.86
2018-08-16T00:12:34.173Z,61.89
2018-08-16T00:13:34.011Z,61.82
2018-08-16T00:14:34.216Z,61.71
2018-08-16T00:15:34.030Z,61.75
2018-08-16T00:16:33.904Z,61.73
2018-08-16T00:17:34.069Z,61.67
2018-08-16T00:18:33.983Z,61.77
2018-08-16T00:19:34.113Z,61.64
2018-08-16T00:20:34.108Z,61.56
2018-08-16T00:21:33.978Z,61.76
2018-08-16T00:22:34.131Z,61.88
2018-08-16T00:23:34.247Z,61.76
2018-08-16T00:24:34.154Z,61.81
2018-08-16T00:25:34.031Z,61.74
2018-08-16T00:26:34.024Z,61.77
2018-08-16T00:27:34.110Z,61.42
2018-08-16T00:28:33.985Z,61.64
2018-08-16T00:29:34.170Z,61.63
2018-08-16T00:30:34.136Z,61.67
2018-08-16T00:31:34.152Z,61.68
2018-08-16T00:32:34.134Z,61.71
2018-08-16T00:33:34.141Z,61.6
2018-08-16T00:34:33.887Z,61.73
2018-08-16T00:35:33.898Z,61.69
2018-08-16T00:36:34.109Z,61.69
2018-08-16T00:37:34.164Z,61.74
2018-08-16T00:38:34.143Z,61.72
2018-08-16T00:39:34.011Z,61.75
2018-08-16T00:40:33.972Z,61.7
2018-08-16T00:41:34.081Z,61.65
2018-08-16T00:42:34.029Z,61.72
2018-08-16T00:43:33.867Z,61.9
2018-08-16T00:44:34.009Z,61.72
2018-08-16T00:45:34.025Z,61.65
2018-08-16T00:46:34.156Z,61.68
2018-08-16T00:47:34.012Z,61.94
2018-08-16T00:48:34.005Z,61.66
2018-08-16T00:49:34.220Z,61.67
2018-08-16T00:50:34.027Z,61.8
2018-08-16T00:51:33.951Z,61.76
2018-08-16T00:52:33.906Z,61.8
2018-08-16T00:53:34.161Z,61.79
2018-08-16T00:54:34.108Z,61.71
2018-08-16T00:55:33.982Z,61.76
2018-08-16T00:56:34.198Z,61.73
2018-08-16T00:57:34.029Z,61.69
2018-08-16T00:58:33.980Z,61.78
2018-08-16T00:59:34.016Z,61.94
2018-08-16T01:00:34.013Z,61.73
2018-08-16T01:01:33.844Z,61.78
2018-08-16T01:02:33.987Z,61.75
2018-08-16T01:03:34.217Z,61.71
2018-08-16T01:04:33.932Z,61.79
2018-08-16T01:05:33.955Z,61.65
2018-08-16T01:06:34.054Z,61.9
2018-08-16T01:07:34.056Z,61.72
2018-08-16T01:08:33.924Z,61.71
2018-08-16T01:09:34.095Z,61.64
2018-08-16T01:10:33.803Z,61.64
2018-08-16T01:11:33.866Z,61.77
2018-08-16T01:12:34.151Z,61.72
2018-08-16T01:13:33.936Z,61.54
2018-08-16T01:14:34.039Z,61.63
2018-08-16T01:15:34.224Z,61.72
2018-08-16T01:16:34.060Z,61.72
2018-08-16T01:17:34.104Z,61.77
2018-08-16T01:18:34.194Z,61.73
2018-08-16T01:19:33.912Z,61.74
2018-08-16T01:20:34.061Z,61.65
2018-08-16T01:21:34.108Z,61.66
2018-08-16T01:22:34.108Z,61.65
2018-08-16T01:23:33.929Z,61.84
2018-08-16T01:24:34.153Z,61.66
2018-08-16T01:25:34.114Z,61.63
2018-08-16T01:26:34.127Z,61.8
2018-08-16T01:27:34.312Z,61.77
2018-08-16T01:28:34.074Z,61.73
2018-08-16T01:29:33.998Z,61.78
2018-08-16T01:30:34.263Z,61.61
2018-08-16T01:31:34.009Z,61.8
2018-08-16T01:32:34.005Z,61.69
2018-08-16T01:33:34.135Z,61.65
2018-08-16T01:34:33.947Z,61.67
2018-08-16T01:35:34.484Z,61.68
2018-08-16T01:36:34.064Z,61.63
2018-08-16T01:37:33.930Z,61.67
2018-08-16T01:38:33.886Z,61.78
2018-08-16T01:39:34.132Z,61.91
2018-08-16T01:40:34.125Z,61.66
2018-08-16T01:41:34.051Z,61.75
2018-08-16T01:42:34.082Z,61.71
2018-08-16T01:43:34.747Z,61.72
2018-08-16T01:44:34.019Z,61.67
2018-08-16T01:45:34.141Z,61.71
2018-08-16T01:46:33.982Z,61.82
2018-08-16T01:47:34.163Z,61.69
2018-08-16T01:48:33.957Z,61.69
2018-08-16T01:49:34.377Z,61.66
2018-08-16T01:50:33.994Z,61.96
2018-08-16T01:51:34.157Z,61.71
2018-08-16T01:52:34.304Z,61.78
2018-08-16T01:53:34.127Z,61.59
2018-08-16T01:54:34.011Z,61.71
2018-08-16T01:55:33.898Z,61.64
2018-08-16T01:56:34.100Z,61.73
2018-08-16T01:57:33.998Z,61.74
2018-08-16T01:58:34.372Z,61.64
2018-08-16T01:59:34.023Z,61.65
2018-08-16T02:00:33.942Z,61.53
2018-08-16T02:01:33.888Z,61.85
2018-08-16T02:02:34.036Z,61.68
2018-08-16T02:03:34.100Z,61.66
2018-08-16T02:04:33.989Z,61.75
2018-08-16T02:05:34.050Z,61.69
2018-08-16T02:06:34.128Z,61.48
2018-08-16T02:07:34.236Z,61.69
2018-08-16T02:08:34.231Z,61.67
2018-08-16T02:09:33.930Z,61.64
2018-08-16T02:10:34.199Z,61.62
2018-08-16T02:11:34.349Z,61.78
2018-08-16T02:12:34.240Z,61.8
2018-08-16T02:13:34.023Z,61.65
2018-08-16T02:14:33.982Z,61.79
2018-08-16T02:15:33.992Z,61.72
2018-08-16T02:16:33.990Z,61.77
2018-08-16T02:17:34.041Z,61.81
2018-08-16T02:18:34.097Z,61.75
2018-08-16T02:19:34.093Z,61.52
2018-08-16T02:20:34.021Z,61.65
2018-08-16T02:21:33.954Z,61.6
2018-08-16T02:22:33.836Z,61.69
2018-08-16T02:23:33.991Z,61.87
2018-08-16T02:24:34.251Z,61.67
2018-08-16T02:25:34.287Z,61.34
2018-08-16T02:26:34.133Z,61.69
2018-08-16T02:27:33.909Z,61.66
2018-08-16T02:28:34.352Z,61.72
2018-08-16T02:29:34.141Z,61.56
2018-08-16T02:30:34.096Z,61.66
2018-08-16T02:31:33.855Z,61.56
2018-08-16T02:32:34.022Z,61.67
2018-08-16T02:33:34.257Z,61.62
2018-08-16T02:34:34.125Z,61.69
2018-08-16T02:35:34.211Z,61.68
2018-08-16T02:36:34.104Z,61.54
2018-08-16T02:37:34.005Z,61.56
2018-08-16T02:38:34.223Z,61.78
2018-08-16T02:39:34.020Z,61.64
2018-08-16T02:40:33.869Z,61.52
2018-08-16T02:41:34.293Z,61.69
2018-08-16T02:42:34.209Z,61.7
2018-08-16T02:43:34.146Z,61.74
2018-08-16T02:44:34.058Z,61.63
2018-08-16T02:45:34.025Z,61.65
2018-08-16T02:46:33.993Z,61.75
2018-08-16T02:47:33.951Z,61.54
2018-08-16T02:48:34.141Z,61.62
2018-08-16T02:49:33.981Z,61.71
2018-08-16T02:50:33.922Z,61.62
2018-08-16T02:51:34.040Z,61.63
2018-08-16T02:52:33.978Z,61.57
2018-08-16T02:53:33.947Z,61.73
2018-08-16T02:54:34.058Z,61.63
2018-08-16T02:55:34.467Z,61.65
2018-08-16T02:56:33.982Z,61.71
2018-08-16T02:57:34.104Z,61.69
2018-08-16T02:58:33.932Z,61.8
2018-08-16T02:59:34.198Z,61.67
2018-08-16T03:00:34.087Z,61.57
2018-08-16T03:01:34.029Z,61.65
2018-08-16T03:02:34.334Z,61.72
2018-08-16T03:03:34.521Z,61.68
2018-08-16T03:04:33.996Z,61.78
2018-08-16T03:05:34.086Z,61.81
2018-08-16T03:06:34.320Z,61.68
2018-08-16T03:07:34.118Z,61.76
2018-08-16T03:08:34.155Z,61.77
2018-08-16T03:09:34.177Z,61.68
2018-08-16T03:10:34.041Z,61.65
2018-08-16T03:11:33.962Z,61.62
2018-08-16T03:12:33.897Z,61.76
2018-08-16T03:13:34.115Z,61.54
2018-08-16T03:14:34.213Z,61.57
2018-08-16T03:15:33.952Z,61.67
2018-08-16T03:16:33.908Z,61.65
2018-08-16T03:17:33.940Z,61.64
2018-08-16T03:18:34.258Z,61.65
2018-08-16T03:19:34.006Z,61.6
2018-08-16T03:20:34.155Z,61.64
2018-08-16T03:21:34.148Z,61.58
2018-08-16T03:22:33.815Z,61.51
2018-08-16T03:23:34.405Z,61.63
2018-08-16T03:24:34.057Z,61.7
2018-08-16T03:25:33.975Z,61.71
2018-08-16T03:26:33.900Z,61.67
2018-08-16T03:27:34.118Z,61.67
2018-08-16T03:28:34.266Z,61.63
2018-08-16T03:29:33.966Z,61.58
2018-08-16T03:30:33.968Z,61.64
2018-08-16T03:31:34.209Z,61.65
2018-08-16T03:32:34.319Z,61.79
2018-08-16T03:33:34.063Z,61.64
2018-08-16T03:34:33.879Z,61.7
2018-08-16T03:35:34.018Z,61.67
2018-08-16T03:36:33.933Z,61.62
2018-08-16T03:37:34.055Z,61.79
2018-08-16T03:38:34.002Z,61.57
2018-08-16T03:39:34.019Z,61.42
2018-08-16T03:40:33.877Z,61.48
2018-08-16T03:41:33.932Z,61.52
2018-08-16T03:42:34.013Z,61.63
2018-08-16T03:43:33.887Z,61.62
2018-08-16T03:44:34.028Z,61.57
2018-08-16T03:45:33.969Z,61.72
2018-08-16T03:46:34.185Z,61.57
2018-08-16T03:47:33.985Z,61.66
2018-08-16T03:48:34.162Z,61.71
2018-08-16T03:49:34.004Z,61.64
2018-08-16T03:50:33.946Z,61.57
2018-08-16T03:51:34.047Z,61.6
2018-08-16T03:52:33.856Z,61.69
2018-08-16T03:53:34.027Z,61.7
2018-08-16T03:54:33.857Z,61.8
2018-08-16T03:55:33.938Z,61.6
2018-08-16T03:56:33.965Z,61.86
2018-08-16T03:57:34.037Z,61.68
2018-08-16T03:58:34.183Z,61.57
2018-08-16T03:59:34.190Z,61.49
2018-08-16T04:00:34.027Z,61.56
2018-08-16T04:01:33.903Z,61.44
2018-08-16T04:02:34.133Z,61.67
2018-08-16T04:03:33.866Z,61.54
2018-08-16T04:04:33.950Z,61.65
2018-08-16T04:05:34.251Z,61.6
2018-08-16T04:06:34.041Z,61.74
2018-08-16T04:07:33.895Z,61.76
2018-08-16T04:08:34.036Z,61.57
2018-08-16T04:09:34.216Z,61.48
2018-08-16T04:10:34.006Z,61.6
2018-08-16T04:11:34.089Z,61.49
2018-08-16T04:12:34.126Z,61.49
2018-08-16T04:13:33.987Z,61.61
2018-08-16T04:14:34.128Z,61.72
2018-08-16T04:15:34.026Z,61.64
2018-08-16T04:16:34.070Z,61.65
2018-08-16T04:17:34.127Z,61.67
2018-08-16T04:18:33.983Z,61.69
2018-08-16T04:19:33.971Z,61.68
2018-08-16T04:20:33.975Z,61.66
2018-08-16T04:21:33.814Z,61.67
2018-08-16T04:22:33.955Z,61.67
2018-08-16T04:23:34.268Z,61.52
2018-08-16T04:24:34.093Z,61.55
2018-08-16T04:25:34.009Z,61.61
2018-08-16T04:26:34.037Z,61.63
2018-08-16T04:27:34.093Z,61.63
2018-08-16T04:28:33.884Z,61.33
2018-08-16T04:29:34.026Z,61.57
2018-08-16T04:30:33.861Z,61.64
2018-08-16T04:31:34.136Z,61.65
2018-08-16T04:32:34.034Z,61.58
2018-08-16T04:33:33.846Z,61.52
2018-08-16T04:34:34.011Z,61.46
2018-08-16T04:35:34.099Z,61.71
2018-08-16T04:36:33.948Z,61.54
2018-08-16T04:37:33.948Z,61.53
2018-08-16T04:38:33.876Z,61.67
2018-08-16T04:39:33.900Z,61.63
2018-08-16T04:40:33.984Z,61.63
2018-08-16T04:41:34.166Z,61.52
2018-08-16T04:42:33.819Z,61.57
2018-08-16T04:43:34.034Z,61.6
2018-08-16T04:44:33.974Z,61.68
2018-08-16T04:45:34.188Z,61.61
2018-08-16T04:46:34.017Z,61.69
2018-08-16T04:47:34.078Z,61.6
2018-08-16T04:48:34.025Z,61.53
2018-08-16T04:49:33.874Z,61.59
2018-08-16T04:50:33.867Z,61.54
2018-08-16T04:51:33.978Z,61.66
2018-08-16T04:52:33.944Z,61.49
2018-08-16T04:53:33.903Z,61.62
2018-08-16T04:54:33.991Z,61.62
2018-08-16T04:55:34.048Z,61.51
2018-08-16T04:56:33.984Z,61.55
2018-08-16T04:57:33.785Z,61.57
2018-08-16T04:58:34.065Z,61.61
2018-08-16T04:59:33.986Z,61.57
2018-08-16T05:00:33.895Z,61.68
2018-08-16T05:01:33.988Z,61.49
2018-08-16T05:02:34.079Z,61.54
2018-08-16T05:03:33.917Z,61.58
2018-08-16T05:04:33.898Z,61.61
2018-08-16T05:05:34.079Z,61.61
2018-08-16T05:06:33.860Z,61.57
2018-08-16T05:07:34.059Z,61.68
2018-08-16T05:08:33.884Z,61.53
2018-08-16T05:09:34.060Z,61.63
2018-08-16T05:10:33.896Z,61.55
2018-08-16T05:11:34.283Z,61.61
2018-08-16T05:12:34.075Z,61.61
2018-08-16T05:13:33.910Z,61.63
2018-08-16T05:14:33.927Z,61.63
2018-08-16T05:15:33.912Z,61.54
2018-08-16T05:16:34.240Z,61.68
2018-08-16T05:17:33.967Z,61.44
2018-08-16T05:18:34.043Z,61.61
2018-08-16T05:19:33.987Z,61.67
2018-08-16T05:20:33.967Z,61.47
2018-08-16T05:21:33.937Z,61.61
2018-08-16T05:22:33.873Z,61.64
2018-08-16T05:23:34.110Z,61.55
2018-08-16T05:24:33.867Z,61.57
2018-08-16T05:25:34.032Z,61.7
2018-08-16T05:26:33.873Z,61.64
2018-08-16T05:27:34.049Z,61.57
2018-08-16T05:28:34.014Z,61.67
2018-08-16T05:29:34.053Z,61.62
2018-08-16T05:30:33.923Z,61.66
2018-08-16T05:31:34.036Z,61.56
2018-08-16T05:32:33.909Z,61.64
2018-08-16T05:33:33.783Z,61.63
2018-08-16T05:34:34.034Z,61.58
2018-08-16T05:35:33.851Z,61.63
2018-08-16T05:36:33.950Z,61.69
2018-08-16T05:37:34.087Z,61.69
2018-08-16T05:38:33.949Z,61.58
2018-08-16T05:39:34.031Z,61.48
2018-08-16T05:40:34.099Z,61.66
2018-08-16T05:41:34.038Z,61.57
2018-08-16T05:42:33.921Z,61.5
2018-08-16T05:43:34.504Z,61.75
2018-08-16T05:44:34.156Z,61.64
2018-08-16T05:45:34.061Z,61.79
2018-08-16T05:46:34.320Z,61.55
2018-08-16T05:47:33.989Z,61.74
2018-08-16T05:48:33.920Z,61.67
2018-08-16T05:49:33.802Z,61.7
2018-08-16T05:50:34.186Z,61.64
2018-08-16T05:51:33.871Z,61.54
2018-08-16T05:52:34.060Z,61.63
2018-08-16T05:53:33.941Z,61.76
2018-08-16T05:54:33.858Z,61.49
2018-08-16T05:55:34.009Z,61.66
2018-08-16T05:56:33.916Z,61.56
2018-08-16T05:57:34.012Z,61.6
2018-08-16T05:58:34.096Z,61.61
2018-08-16T05:59:34.265Z,61.69
2018-08-16T06:00:33.811Z,61.73
2018-08-16T06:01:33.895Z,61.68
2018-08-16T06:02:33.945Z,61.84
2018-08-16T06:03:34.116Z,61.67
2018-08-16T06:04:34.121Z,61.55
2018-08-16T06:05:33.935Z,61.58
2018-08-16T06:06:34.087Z,61.66
2018-08-16T06:07:34.116Z,61.67
2018-08-16T06:08:33.961Z,61.64
2018-08-16T06:09:33.832Z,61.73
2018-08-16T06:10:33.850Z,61.77
2018-08-16T06:11:33.972Z,60.71
2018-08-16T06:12:33.968Z,60.62
2018-08-16T06:13:34.113Z,60.91
2018-08-16T06:14:33.835Z,60.59
2018-08-16T06:15:34.326Z,60.75
2018-08-16T06:16:33.871Z,60.81
2018-08-16T06:17:34.083Z,61.21
2018-08-16T06:18:33.929Z,61.34
2018-08-16T06:19:33.980Z,61.72
2018-08-16T06:20:33.820Z,61.74
2018-08-16T06:21:34.082Z,61.33
2018-08-16T06:22:33.954Z,61.54
2018-08-16T06:23:34.099Z,61.33
2018-08-16T06:24:33.919Z,61.58
2018-08-16T06:25:34.104Z,61.56
2018-08-16T06:26:33.900Z,61.56
2018-08-16T06:27:34.009Z,61.57
2018-08-16T06:28:34.048Z,61.55
2018-08-16T06:29:33.791Z,61.62
2018-08-16T06:30:33.868Z,61.87
2018-08-16T06:31:34.082Z,62.13
2018-08-16T06:32:34.128Z,61.71
2018-08-16T06:33:34.004Z,61.45
2018-08-16T06:34:34.178Z,61.5
2018-08-16T06:35:34.239Z,61.86
2018-08-16T06:36:34.117Z,61.68
2018-08-16T06:37:33.913Z,61.78
2018-08-16T06:38:33.803Z,61.54
2018-08-16T06:39:33.927Z,61.22
2018-08-16T06:40:33.979Z,60.55
2018-08-16T06:41:34.140Z,61.17
2018-08-16T06:42:34.006Z,60.97
2018-08-16T06:43:34.005Z,61.12
2018-08-16T06:44:34.049Z,60.85
2018-08-16T06:45:34.063Z,61.16
2018-08-16T06:46:34.200Z,60.98
2018-08-16T06:47:34.240Z,60.87
2018-08-16T06:48:34.190Z,60.68
2018-08-16T06:49:34.061Z,61.16
2018-08-16T06:50:33.898Z,60.41
2018-08-16T06:51:33.897Z,60.9
2018-08-16T06:52:34.363Z,60.96
2018-08-16T06:53:34.116Z,61.25
2018-08-16T06:54:34.052Z,60.89
2018-08-16T06:55:33.946Z,60.67
2018-08-16T06:56:33.862Z,60.82
2018-08-16T06:57:34.190Z,61.04
2018-08-16T06:58:33.884Z,60.84
2018-08-16T06:59:34.174Z,60.51
2018-08-16T07:00:34.063Z,61.15
2018-08-16T07:01:33.848Z,60.46
2018-08-16T07:02:33.926Z,60.72
2018-08-16T07:03:34.027Z,60.87
2018-08-16T07:04:33.879Z,60.77
2018-08-16T07:05:33.920Z,60.76
2018-08-16T07:06:34.078Z,60.85
2018-08-16T07:07:33.993Z,60.79
2018-08-16T07:08:34.078Z,60.95
2018-08-16T07:09:33.989Z,61.02
2018-08-16T07:10:34.042Z,61.12
2018-08-16T07:11:34.149Z,61.23
2018-08-16T07:12:34.259Z,61.22
2018-08-16T07:13:34.073Z,60.81
2018-08-16T07:14:33.864Z,60.72
2018-08-16T07:15:34.174Z,60.49
2018-08-16T07:16:34.101Z,60.8
2018-08-16T07:17:34.080Z,60.68
2018-08-16T07:18:34.098Z,60.95
2018-08-16T07:19:33.921Z,60.64
2018-08-16T07:20:34.089Z,60.58
2018-08-16T07:21:33.900Z,60.65
2018-08-16T07:22:34.140Z,60.75
2018-08-16T07:23:33.971Z,60.76
2018-08-16T07:24:34.109Z,60.53
2018-08-16T07:25:34.058Z,60.42
2018-08-16T07:26:33.943Z,60.59
2018-08-16T07:27:33.927Z,60.72
2018-08-16T07:28:33.901Z,60.82
2018-08-16T07:29:33.835Z,60.53
2018-08-16T07:30:33.810Z,60.33
2018-08-16T07:31:33.981Z,60.45
2018-08-16T07:32:33.839Z,60.86
2018-08-16T07:33:34.000Z,60.57
2018-08-16T07:34:33.849Z,60.76
2018-08-16T07:35:34.058Z,60.7
2018-08-16T07:36:33.909Z,60.71
2018-08-16T07:37:33.907Z,60.78
2018-08-16T07:38:34.025Z,60.88
2018-08-16T07:39:33.954Z,60.69
2018-08-16T07:40:33.838Z,60.91
2018-08-16T07:41:33.883Z,60.93
2018-08-16T07:42:34.063Z,61.01
2018-08-16T07:43:33.924Z,60.88
2018-08-16T07:44:33.937Z,60.86
2018-08-16T07:45:34.172Z,60.94
2018-08-16T07:46:34.295Z,60.91
2018-08-16T07:47:34.056Z,60.74
2018-08-16T07:48:34.001Z,60.98
2018-08-16T07:49:34.437Z,61.11
2018-08-16T07:50:33.906Z,61.21
2018-08-16T07:51:34.628Z,61.12
2018-08-16T07:52:33.920Z,61.08
2018-08-16T07:53:33.944Z,61.37
2018-08-16T07:54:34.078Z,61.69
2018-08-16T07:55:33.863Z,61.41
2018-08-16T07:56:33.814Z,61.58
2018-08-16T07:57:34.232Z,61.22
2018-08-16T07:58:34.012Z,61.42
2018-08-16T07:59:33.909Z,61.46
2018-08-16T08:00:34.012Z,61.51
2018-08-16T08:01:34.165Z,61.27
2018-08-16T08:02:34.025Z,61.25
2018-08-16T08:03:33.871Z,61.37
2018-08-16T08:04:33.877Z,61.53
2018-08-16T08:05:33.949Z,61.23
2018-08-16T08:06:33.866Z,61.18
2018-08-16T08:07:34.012Z,61.52
2018-08-16T08:08:33.928Z,61.48
2018-08-16T08:09:34.328Z,61.44
2018-08-16T08:10:33.958Z,61.4
2018-08-16T08:11:33.878Z,61.4
2018-08-16T08:12:34.094Z,61.53
2018-08-16T08:13:34.022Z,61.51
2018-08-16T08:14:34.161Z,61.54
2018-08-16T08:15:34.292Z,61.52
2018-08-16T08:16:34.261Z,61.39
2018-08-16T08:17:33.964Z,61.36
2018-08-16T08:18:34.094Z,61.44
2018-08-16T08:19:34.153Z,61.47
2018-08-16T08:20:33.956Z,61.41
2018-08-16T08:21:33.956Z,61.43
2018-08-16T08:22:33.825Z,61.41
2018-08-16T08:23:33.997Z,61.16
2018-08-16T08:24:33.944Z,61.43
2018-08-16T08:25:34.199Z,61.35
2018-08-16T08:26:33.808Z,61.37
2018-08-16T08:27:33.883Z,61.21
2018-08-16T08:28:34.196Z,61.34
2018-08-16T08:29:33.874Z,61.4
2018-08-16T08:30:33.986Z,61.29
2018-08-16T08:31:34.071Z,61.22
2018-08-16T08:32:33.972Z,61.31
2018-08-16T08:33:33.913Z,61.46
2018-08-16T08:34:34.122Z,61.25
2018-08-16T08:35:33.813Z,61.4
2018-08-16T08:36:33.889Z,61.34
2018-08-16T08:37:33.836Z,61.46
2018-08-16T08:38:34.162Z,61.17
2018-08-16T08:39:34.139Z,61.27
2018-08-16T08:40:33.957Z,61.45
2018-08-16T08:41:33.996Z,61.4
2018-08-16T08:42:33.893Z,61.18
2018-08-16T08:43:34.189Z,61.25
2018-08-16T08:44:33.856Z,61.39
2018-08-16T08:45:34.202Z,61.23
2018-08-16T08:46:33.935Z,61.32
2018-08-16T08:47:33.974Z,61.33
2018-08-16T08:48:33.829Z,61.39
2018-08-16T08:49:33.971Z,61.41
2018-08-16T08:50:33.978Z,61.41
2018-08-16T08:51:33.846Z,61.43
2018-08-16T08:52:34.003Z,61.4
2018-08-16T08:53:33.955Z,61.43
2018-08-16T08:54:34.000Z,61.35
2018-08-16T08:55:34.085Z,61.42
2018-08-16T08:56:33.978Z,61.3
2018-08-16T08:57:34.068Z,61.29
2018-08-16T08:58:33.766Z,61.22
2018-08-16T08:59:34.056Z,61.38
2018-08-16T09:00:33.819Z,61.39
2018-08-16T09:01:34.062Z,61.47
2018-08-16T09:02:33.884Z,61.54
2018-08-16T09:03:34.020Z,61.28
2018-08-16T09:04:33.890Z,61.41
2018-08-16T09:05:33.893Z,61.4
2018-08-16T09:06:34.075Z,61.52
2018-08-16T09:07:33.919Z,61.51
2018-08-16T09:08:33.861Z,61.27
2018-08-16T09:09:33.755Z,61.25
2018-08-16T09:10:33.922Z,61.31
2018-08-16T09:11:33.773Z,61.25
2018-08-16T09:12:34.167Z,61.31
2018-08-16T09:13:34.100Z,61.34
2018-08-16T09:14:34.090Z,61.17
2018-08-16T09:15:34.006Z,61.3
2018-08-16T09:16:34.111Z,61.32
2018-08-16T09:17:34.046Z,61.31
2018-08-16T09:18:33.920Z,61.3
2018-08-16T09:19:33.964Z,61.23
2018-08-16T09:20:33.757Z,61.29
2018-08-16T09:21:34.023Z,61.34
2018-08-16T09:22:33.835Z,61.16
2018-08-16T09:23:33.853Z,61.37
2018-08-16T09:24:34.129Z,61.54
2018-08-16T09:25:33.996Z,61.29
2018-08-16T09:26:34.052Z,61.46
2018-08-16T09:27:34.039Z,61.36
2018-08-16T09:28:34.177Z,61.3
2018-08-16T09:29:33.955Z,61.26
2018-08-16T09:30:35.605Z,61.16
2018-08-16T09:31:34.016Z,61.32
2018-08-16T09:32:34.024Z,61.34
2018-08-16T09:33:33.879Z,61.26
2018-08-16T09:34:33.985Z,61.17
2018-08-16T09:35:34.025Z,61.17
2018-08-16T09:36:33.918Z,61.22
2018-08-16T09:37:33.936Z,61.08
2018-08-16T09:38:33.780Z,61.31
2018-08-16T09:39:34.575Z,61.33
2018-08-16T09:40:34.098Z,61.29
2018-08-16T09:41:34.026Z,61.34
2018-08-16T09:42:34.178Z,61.31
2018-08-16T09:43:33.880Z,61.17
2018-08-16T09:44:34.137Z,61.3
2018-08-16T09:45:34.011Z,61.29
2018-08-16T09:46:34.106Z,61.3
2018-08-16T09:47:33.855Z,61.26
2018-08-16T09:48:34.121Z,61.2
2018-08-16T09:49:33.948Z,61.36
2018-08-16T09:50:33.760Z,61.18
2018-08-16T09:51:34.249Z,61.35
2018-08-16T09:52:33.986Z,61.39
2018-08-16T09:53:33.923Z,61.29
2018-08-16T09:54:33.928Z,61.15
2018-08-16T09:55:34.068Z,61.19
2018-08-16T09:56:33.957Z,61.42
2018-08-16T09:57:34.044Z,61.19
2018-08-16T09:58:33.834Z,61
2018-08-16T09:59:34.007Z,61.34
2018-08-16T10:00:33.967Z,61.8
2018-08-16T10:01:33.912Z,61.42
2018-08-16T10:02:34.062Z,61.69
2018-08-16T10:03:34.007Z,61.63
2018-08-16T10:04:33.998Z,61.77
2018-08-16T10:05:33.814Z,61.8
2018-08-16T10:06:33.905Z,61.93
2018-08-16T10:07:34.089Z,61.63
2018-08-16T10:08:33.899Z,61.8
2018-08-16T10:09:34.131Z,61.76
2018-08-16T10:10:34.123Z,61.64
2018-08-16T10:11:33.970Z,61.83
2018-08-16T10:12:34.036Z,61.78
2018-08-16T10:13:34.151Z,61.69
2018-08-16T10:14:33.845Z,61.64
2018-08-16T10:15:33.971Z,61.92
2018-08-16T10:16:34.055Z,62.24
2018-08-16T10:17:34.028Z,61.74
2018-08-16T10:18:33.852Z,61.97
2018-08-16T10:19:33.918Z,61.85
2018-08-16T10:20:34.116Z,62.34
2018-08-16T10:21:34.057Z,62.24
2018-08-16T10:22:34.092Z,62.25
2018-08-16T10:23:33.848Z,62.08
2018-08-16T10:24:34.000Z,62.24
2018-08-16T10:25:34.578Z,62.14
2018-08-16T10:26:33.934Z,62.26
2018-08-16T10:27:33.979Z,61.97
2018-08-16T10:28:34.111Z,62.16
2018-08-16T10:29:34.082Z,62.29
2018-08-16T10:30:34.119Z,62.18
2018-08-16T10:31:33.998Z,62.35
2018-08-16T10:32:33.698Z,62.02
2018-08-16T10:33:34.079Z,61.92
2018-08-16T10:34:34.096Z,61.88
2018-08-16T10:35:34.000Z,61.9
2018-08-16T10:36:33.898Z,62.06
2018-08-16T10:37:34.120Z,62.14
2018-08-16T10:38:33.999Z,62.16
2018-08-16T10:39:33.933Z,62.28
2018-08-16T10:40:33.979Z,62.21
2018-08-16T10:41:33.928Z,62.24
2018-08-16T10:42:34.029Z,62.21
2018-08-16T10:43:34.045Z,62.1
2018-08-16T10:44:34.079Z,62.24
2018-08-16T10:45:33.868Z,62.12
2018-08-16T10:46:34.019Z,62.24
2018-08-16T10:47:34.104Z,62.23
2018-08-16T10:48:33.993Z,62.11
2018-08-16T10:49:34.031Z,62.22
2018-08-16T10:50:33.844Z,62
2018-08-16T10:51:33.823Z,61.96
2018-08-16T10:52:33.916Z,61.94
2018-08-16T10:53:33.801Z,61.95
2018-08-16T10:54:33.840Z,62.06
2018-08-16T10:55:33.985Z,62.02
2018-08-16T10:56:34.027Z,62.08
2018-08-16T10:57:34.067Z,62.01
2018-08-16T10:58:34.113Z,61.99
2018-08-16T10:59:35.163Z,62.16
2018-08-16T11:00:33.920Z,62
2018-08-16T11:01:33.920Z,62.04
2018-08-16T11:02:33.968Z,61.94
2018-08-16T11:03:33.937Z,61.81
2018-08-16T11:04:34.100Z,62.11
2018-08-16T11:05:34.010Z,62.07
2018-08-16T11:06:33.752Z,62.11
2018-08-16T11:07:33.952Z,61.96
2018-08-16T11:08:33.807Z,61.83
2018-08-16T11:09:33.954Z,61.89
2018-08-16T11:10:33.759Z,61.83
2018-08-16T11:11:33.946Z,61.9
2018-08-16T11:12:33.807Z,61.89
2018-08-16T11:13:33.829Z,61.8
2018-08-16T11:14:34.054Z,61.93
2018-08-16T11:15:33.931Z,61.92
2018-08-16T11:16:33.773Z,61.86
2018-08-16T11:17:33.863Z,61.88
2018-08-16T11:18:33.834Z,61.87
2018-08-16T11:19:33.936Z,61.9
2018-08-16T11:20:33.989Z,61.95
2018-08-16T11:21:33.893Z,61.87
2018-08-16T11:22:34.095Z,61.76
2018-08-16T11:23:34.198Z,61.87
2018-08-16T11:24:33.885Z,61.79
2018-08-16T11:25:33.915Z,61.92
2018-08-16T11:26:33.923Z,61.9
2018-08-16T11:27:33.853Z,61.77
2018-08-16T11:28:33.955Z,61.87
2018-08-16T11:29:33.898Z,61.87
2018-08-16T11:30:33.885Z,61.86
2018-08-16T11:31:33.900Z,61.76
2018-08-16T11:32:33.835Z,61.78
2018-08-16T11:33:33.885Z,61.83
2018-08-16T11:34:33.765Z,61.85
2018-08-16T11:35:33.774Z,61.85
2018-08-16T11:36:33.798Z,61.99
2018-08-16T11:37:33.944Z,62.04
2018-08-16T11:38:33.804Z,61.97
2018-08-16T11:39:33.931Z,61.97
2018-08-16T11:40:33.877Z,62.02
2018-08-16T11:41:33.936Z,61.76
2018-08-16T11:42:33.939Z,61.78
2018-08-16T11:43:33.991Z,61.9
2018-08-16T11:44:33.712Z,61.87
2018-08-16T11:45:34.017Z,61.94
2018-08-16T11:46:34.185Z,61.86
2018-08-16T11:47:34.074Z,61.84
2018-08-16T11:48:33.800Z,61.82
2018-08-16T11:49:33.981Z,62
2018-08-16T11:50:34.090Z,61.89
2018-08-16T11:51:33.993Z,61.85
2018-08-16T11:52:34.039Z,62.03
2018-08-16T11:53:33.862Z,61.81
2018-08-16T11:54:34.116Z,61.86
2018-08-16T11:55:33.849Z,61.77
2018-08-16T11:56:34.050Z,61.86
2018-08-16T11:57:33.867Z,62.01
2018-08-16T11:58:33.992Z,61.87
2018-08-16T11:59:34.055Z,61.85
2018-08-16T12:00:34.275Z,61.71
2018-08-16T12:01:33.860Z,61.69
2018-08-16T12:02:33.843Z,61.63
2018-08-16T12:03:33.824Z,61.6
2018-08-16T12:04:33.789Z,61.61
2018-08-16T12:05:33.978Z,61.79
2018-08-16T12:06:33.803Z,61.77
2018-08-16T12:07:33.879Z,61.74
2018-08-16T12:08:33.941Z,61.84
2018-08-16T12:09:34.061Z,61.87
2018-08-16T12:10:33.811Z,61.81
2018-08-16T12:11:33.895Z,61.88
2018-08-16T12:12:33.929Z,61.79
2018-08-16T12:13:33.942Z,61.78
2018-08-16T12:14:34.379Z,61.77
2018-08-16T12:15:33.864Z,61.81
2018-08-16T12:16:33.880Z,61.69
2018-08-16T12:17:34.010Z,61.88
2018-08-16T12:18:33.833Z,61.76
2018-08-16T12:19:33.946Z,61.69
2018-08-16T12:20:33.830Z,61.83
2018-08-16T12:21:33.861Z,61.64
2018-08-16T12:22:33.863Z,61.63
2018-08-16T12:23:33.754Z,61.65
2018-08-16T12:24:33.775Z,61.56
2018-08-16T12:25:34.075Z,61.62
2018-08-16T12:26:33.957Z,61.79
2018-08-16T12:27:33.926Z,61.83
2018-08-16T12:28:33.904Z,61.7
2018-08-16T12:29:34.109Z,61.74
2018-08-16T12:30:34.040Z,61.72
2018-08-16T12:31:33.766Z,61.84
2018-08-16T12:32:34.066Z,61.73
2018-08-16T12:33:33.732Z,62.1
2018-08-16T12:34:33.830Z,61.88
2018-08-16T12:35:33.995Z,61.84
2018-08-16T12:36:33.966Z,61.89
2018-08-16T12:37:33.958Z,61.86
2018-08-16T12:38:33.886Z,61.76
2018-08-16T12:39:34.037Z,61.76
2018-08-16T12:40:34.096Z,61.75
2018-08-16T12:41:34.144Z,61.76
2018-08-16T12:42:33.761Z,61.73
2018-08-16T12:43:34.047Z,61.93
2018-08-16T12:44:33.985Z,61.81
2018-08-16T12:45:33.851Z,61.75
2018-08-16T12:46:33.875Z,61.79
2018-08-16T12:47:34.088Z,61.84
2018-08-16T12:48:33.793Z,61.86
2018-08-16T12:49:33.855Z,61.94
2018-08-16T12:50:33.810Z,61.92
2018-08-16T12:51:33.766Z,61.82
2018-08-16T12:52:34.082Z,61.84
2018-08-16T12:53:34.085Z,62.01
2018-08-16T12:54:33.862Z,61.94
2018-08-16T12:55:33.961Z,61.9